Wednesday, November 14, 2018, 1:47 AM EST
Back to Local

KDKK, Chautauqua County/dunkirk

Location: Dunkirk, NY, United States Lat: 42.5
Local Time: 1:47 AM EST ( 6:47 GMT) Lon: -79.283
Time Zone: US/Eastern Elev: 692 ft

Show me the last for .
Show Decoded

2018-11-14 00:53 METAR KDKK 140553Z AUTO 29013G21KT 10SM OVC038 M01/M08 A3031 RMK AO2 SLP270
                 60001 T10061078 10011 21006 51022 =
2018-11-13 23:53 METAR KDKK 140453Z AUTO 29015G21KT 10SM BKN037 BKN045 OVC055 M01/M07 A3029 RMK
                 AO2 PK WND 30026/0403 SLP263 T10061072 400331006 =
2018-11-13 22:53 METAR KDKK 140353Z AUTO 27013G23KT 10SM SCT038 OVC048 00/M08 A3026 RMK AO2 PK
                 WND 28029/0255 SNB0255E18 SLP253 P0000 T00001083 =
2018-11-13 21:53 METAR KDKK 140253Z AUTO 28015G23KT 10SM FEW037 BKN048 OVC060 01/M07 A3024 RMK
                 AO2 PK WND 28026/0221 SLP246 60001 T00061072 53012 =
2018-11-13 20:53 METAR KDKK 140153Z AUTO 29013G23KT 10SM BKN047 OVC055 01/M07 A3022 RMK AO2
                 SNB07E26 SLP241 P0000 T00061072 =
2018-11-13 19:53 METAR KDKK 140053Z AUTO 29013G26KT 10SM SCT032 BKN043 OVC055 01/M04 A3021 RMK
                 AO2 PK WND 31026/0051 SNE18 SLP237 P0001 T00111039 =
2018-11-13 19:06 METAR KDKK 140006Z AUTO 30012G19KT 4SM -SN SCT025 BKN031 OVC039 01/M03 A3020 RMK
                 AO2 P0001 T00061033 =
2018-11-13 18:58 METAR KDKK 132358Z AUTO 27011G24KT 2 1/2SM -SN BKN022 BKN027 OVC037 00/M03 A3020
                 RMK AO2 VIS 1 1/2V5 P0000 T00001033 =
2018-11-13 18:53 METAR KDKK 132353Z AUTO 29017G24KT 4SM -SN SCT026 BKN032 OVC040 01/M04 A3020 RMK
                 AO2 SNB00 SLP234 P0000 60000 T00111039 10033 20000 53020 =
2018-11-13 17:53 METAR KDKK 132253Z AUTO 30014G21KT 10SM FEW025 BKN048 OVC055 02/M03 A3016 RMK
                 AO2 SNE31 SLP221 P0000 T00171033 =
2018-11-13 17:40 METAR KDKK 132240Z AUTO 29012G20KT 10SM FEW027 SCT050 OVC060 02/M03 A3016 RMK
                 AO2 SNE31 P0000 T00171033 =
2018-11-13 16:53 METAR KDKK 132153Z AUTO 30007KT 7SM -SN SCT016 BKN023 OVC055 01/M02 A3016 RMK
                 AO2 SLP218 P0000 T00061022 =
2018-11-13 16:14 METAR KDKK 132114Z AUTO 32011KT 5SM -SN BR BKN015 OVC019 01/M02 A3015 RMK AO2
                 P0000 T00061017 =
2018-11-13 15:53 METAR KDKK 132053Z AUTO 33012KT 7SM -SN BKN012 OVC020 00/M02 A3014 RMK AO2
                 SNB1955 SLP213 P0000 60000 T00001017 53015 =
2018-11-13 15:38 METAR KDKK 132038Z AUTO 34013KT 4SM -SN BR OVC012 01/M02 A3014 RMK AO2 SNB1955
                 P0000 T00061017 =
2018-11-13 15:20 METAR KDKK 132020Z AUTO 35013G21KT 2SM -SN BR OVC012 00/M02 A3012 RMK AO2
                 SNB1955 P0000 T00001017 =
2018-11-13 15:01 METAR KDKK 132001Z AUTO 34010G19KT 7SM -SN BKN010 BKN024 OVC033 01/M01 A3012 RMK
                 AO2 SNB1955 P0000 T00111011 =
2018-11-13 14:53 METAR KDKK 131953Z AUTO 34014G19KT 10SM SCT009 BKN023 OVC035 02/M01 A3012 RMK
                 AO2 UPE07RAB07E10 SLP205 P0000 T00171011 =
2018-11-13 14:32 METAR KDKK 131932Z AUTO 30009G18KT 10SM SCT023 BKN030 OVC065 03/M02 A3010 RMK
                 AO2 UPE07RAB07E10 P0000 T00281017 =
2018-11-13 13:53 METAR KDKK 131853Z AUTO 28007KT 9SM UP BKN018 BKN026 OVC060 03/M01 A3010 RMK AO2
                 UPB53SNB28E53 SLP197 P0000 T00281006 =
2018-11-13 12:53 METAR KDKK 131753Z AUTO 28010KT 10SM BKN024 OVC030 03/M01 A3008 RMK AO2 SLP193
                 60000 T00281011 10033 20028 58002 =
2018-11-13 12:41 METAR KDKK 131741Z AUTO 29008KT 10SM SCT021 BKN026 OVC049 03/M01 A3009 RMK AO2
                 T00331011 =
2018-11-13 12:06 METAR KDKK 131706Z AUTO 29011G17KT 10SM FEW016 BKN030 OVC049 03/M01 A3009 RMK
                 AO2 T00331006 =
2018-11-13 11:53 METAR KDKK 131653Z AUTO 30013G17KT 10SM SCT016 BKN026 OVC030 03/00 A3009 RMK AO2
                 SLP195 T00330000 =
2018-11-13 10:53 METAR KDKK 131553Z AUTO 31008KT 10SM SCT014 OVC022 03/01 A3009 RMK AO2
                 UPB1457E06 SLP195 P0000 T00330006 =
2018-11-13 10:25 METAR KDKK 131525Z AUTO 30010KT 8SM FEW010 BKN016 OVC023 03/01 A3009 RMK AO2
                 UPB1457E06 P0000 T00330011 =
2018-11-13 10:09 METAR KDKK 131509Z AUTO 28006KT 6SM BR FEW009 BKN013 OVC019 03/02 A3009 RMK AO2
                 UPB1457E06 P0000 T00330017 =
2018-11-13 10:02 METAR KDKK 131502Z AUTO 29008KT 3SM UP BR SCT009 BKN016 OVC021 03/02 A3009 RMK
                 AO2 UPB1457 P0000 T00280017 =
2018-11-13 09:53 METAR KDKK 131453Z AUTO 31010KT 4SM BR FEW009 BKN014 OVC021 03/01 A3009 RMK AO2
                 SLP195 T00280011 53004 =
2018-11-13 09:51 METAR KDKK 131451Z AUTO 31010KT 5SM BR FEW009 BKN014 OVC019 03/01 A3009 RMK AO2
                 =
2018-11-13 08:53 METAR KDKK 131353Z AUTO 32007KT 10SM OVC016 03/01 A3008 RMK AO2 SLP192 T00330006
                 =
2018-11-13 08:26 METAR KDKK 131326Z AUTO 33005KT 9SM BKN016 OVC023 03/01 A3008 RMK AO2 T00280006
                 =
2018-11-13 07:53 METAR KDKK 131253Z AUTO 34007KT 8SM OVC014 03/01 A3008 RMK AO2 SLP193 T00330006
                 =
2018-11-13 07:44 METAR KDKK 131244Z AUTO 33006KT 7SM OVC014 03/01 A3009 RMK AO2 T00280006 =
2018-11-13 07:18 METAR KDKK 131218Z AUTO 34004KT 9SM SCT014 OVC020 03/01 A3008 RMK AO2 T00280011
                 =
2018-11-13 06:53 METAR KDKK 131153Z AUTO 34009KT 8SM OVC012 03/01 A3008 RMK AO2 RAE00 SLP191
                 P0000 60000 T00330011 10033 20011 56009 =
2018-11-13 06:28 METAR KDKK 131128Z AUTO 36008KT 9SM OVC013 03/01 A3007 RMK AO2 RAE00 P0000
                 T00330006 =
2018-11-13 05:53 METAR KDKK 131053Z AUTO 00000KT 10SM -RA BKN019 BKN025 OVC032 03/M02 A3008 RMK
                 AO2 UPB48E53RAB53 SLP193 P0000 T00281017 =
2018-11-13 04:53 METAR KDKK 130953Z AUTO 20007KT 10SM FEW035 OVC042 03/M01 A3009 RMK AO2 SLP196
                 T00281011 =
2018-11-13 03:53 METAR KDKK 130853Z AUTO 19006KT 10SM OVC070 03/M01 A3010 RMK AO2 SLP200
                 T00281006 58015 =
2018-11-13 02:53 METAR KDKK 130753Z AUTO 17004KT 10SM OVC085 02/00 A3012 RMK AO2 SLP207 T00170000
                 =
2018-11-13 01:53 METAR KDKK 130653Z AUTO 16006KT 10SM OVC090 01/M01 A3014 RMK AO2 SLP214
                 T00111006 =

Support USWX by starting your Amazon purchase here.